Terminal Aerodrome Forecast
Issued by NWS Paducah, KY

Home | Current Version | Previous Version | Graphics & Text | Print | Product List | Glossary On
Versions: 1 2 3 4 5 6 7 8 9 10 11 12 13 14 15 16 17 18 19 20 21 22
000
FTUS43 KPAH 050313 AAC
TAFEVV
TAF AMD
KEVV 050313Z 0503/0524 35011KT 3/4SM -SN BR VV009
     FM050400 35010KT 3SM -SN BR OVC015
     FM050600 36008KT 6SM BR SCT010 OVC120
     FM051600 35008KT P6SM SCT015=

USA.gov is the U.S. government's official web portal to all federal, state and local government web resources and services.